createdAt,value
2023-03-20T00:02:22.135Z,50.70
2023-03-20T00:04:51.181Z,52.90
2023-03-20T00:07:19.600Z,50.30
2023-03-20T00:09:48.802Z,49.70
2023-03-20T00:12:24.256Z,51.70
2023-03-20T00:14:53.163Z,49.00
2023-03-20T00:17:21.717Z,49.20
2023-03-20T00:19:50.592Z,47.80
2023-03-20T00:22:19.077Z,46.30
2023-03-20T00:24:47.873Z,49.10
2023-03-20T00:27:18.003Z,49.10
2023-03-20T00:29:46.778Z,49.50
2023-03-20T00:32:15.868Z,49.40
2023-03-20T00:34:44.567Z,49.00
2023-03-20T00:37:14.773Z,51.80
2023-03-20T00:39:43.367Z,48.60
2023-03-20T00:42:21.341Z,52.40
2023-03-20T00:44:54.650Z,45.60
2023-03-20T00:47:26.018Z,48.40
2023-03-20T00:49:56.177Z,50.20
2023-03-20T00:52:25.184Z,51.20
2023-03-20T00:54:53.736Z,49.30
2023-03-20T00:57:29.555Z,48.80
2023-03-20T01:00:05.207Z,50.60
2023-03-20T01:02:34.734Z,49.60
2023-03-20T01:05:05.761Z,51.60
2023-03-20T01:07:34.151Z,51.90
2023-03-20T01:10:05.991Z,53.10
2023-03-20T01:12:34.384Z,56.00
2023-03-20T01:15:02.655Z,56.70
2023-03-20T01:17:31.345Z,53.70
2023-03-20T01:19:59.741Z,47.80
2023-03-20T01:22:28.105Z,47.70
2023-03-20T01:24:56.373Z,47.70
2023-03-20T01:27:24.752Z,43.90
2023-03-20T01:29:53.399Z,46.50
2023-03-20T01:32:21.820Z,47.30
2023-03-20T01:34:53.169Z,45.40
2023-03-20T01:37:27.630Z,45.20
2023-03-20T01:39:58.139Z,43.80
2023-03-20T01:42:26.595Z,47.20
2023-03-20T01:44:54.940Z,46.60
2023-03-20T01:47:25.111Z,43.70
2023-03-20T01:50:18.974Z,46.50
2023-03-20T01:52:50.920Z,49.70
2023-03-20T01:55:21.318Z,52.40
2023-03-20T01:57:56.503Z,51.30
2023-03-20T02:00:25.190Z,55.30
2023-03-20T02:02:55.001Z,56.30
2023-03-20T02:05:43.931Z,64.40
2023-03-20T02:08:40.195Z,78.00
2023-03-20T02:11:08.884Z,88.80
2023-03-20T02:13:38.182Z,88.80
2023-03-20T02:16:11.330Z,90.50
2023-03-20T02:19:00.441Z,76.40
2023-03-20T02:22:01.278Z,72.90
2023-03-20T02:24:35.804Z,55.30
2023-03-20T02:27:16.776Z,57.10
2023-03-20T02:30:03.690Z,54.90
2023-03-20T02:32:36.114Z,44.70
2023-03-20T02:35:39.172Z,56.70
2023-03-20T02:38:23.721Z,47.10
2023-03-20T02:41:13.376Z,47.90
2023-03-20T02:44:07.893Z,51.60
2023-03-20T02:46:39.045Z,48.70
2023-03-20T02:49:26.249Z,43.60
2023-03-20T02:52:08.558Z,46.40
2023-03-20T02:54:41.339Z,45.80
2023-03-20T02:57:14.779Z,45.80
2023-03-20T03:00:05.536Z,46.00
2023-03-20T03:02:39.631Z,43.80
2023-03-20T03:05:17.325Z,51.40
2023-03-20T03:07:51.010Z,48.80
2023-03-20T03:10:27.427Z,52.50
2023-03-20T03:12:58.982Z,49.30
2023-03-20T03:15:40.837Z,54.30
2023-03-20T03:18:16.610Z,55.70
2023-03-20T03:20:48.346Z,50.10
2023-03-20T03:23:43.382Z,46.60
2023-03-20T03:26:42.484Z,47.00
2023-03-20T03:31:44.721Z,42.50
2023-03-20T03:34:16.418Z,43.80
2023-03-20T03:37:21.463Z,44.60
2023-03-20T03:40:32.649Z,47.00
2023-03-20T03:43:17.321Z,46.60
2023-03-20T03:45:52.862Z,43.10
2023-03-20T03:48:31.375Z,41.50
2023-03-20T03:51:07.455Z,50.40
2023-03-20T03:53:41.549Z,92.10
2023-03-20T03:56:14.084Z,104.70
2023-03-20T03:58:47.210Z,92.30
2023-03-20T04:01:17.971Z,85.60
2023-03-20T04:03:51.308Z,68.00
2023-03-20T04:06:20.553Z,58.60
2023-03-20T04:08:48.925Z,53.90
2023-03-20T04:11:20.744Z,44.00
2023-03-20T04:13:51.564Z,46.20
2023-03-20T04:16:23.551Z,46.40
2023-03-20T04:18:53.704Z,41.90
2023-03-20T04:21:22.801Z,56.50
2023-03-20T04:23:52.818Z,44.40
2023-03-20T04:26:23.759Z,46.40
2023-03-20T04:28:52.246Z,45.40
2023-03-20T04:31:36.200Z,48.50
2023-03-20T04:34:19.024Z,50.40
2023-03-20T04:37:08.696Z,53.10
2023-03-20T04:40:04.317Z,45.80
2023-03-20T04:42:32.675Z,44.00
2023-03-20T04:45:05.772Z,46.40
2023-03-20T04:47:34.145Z,45.00
2023-03-20T04:50:02.527Z,51.70
2023-03-20T04:52:32.029Z,46.50
2023-03-20T04:55:00.522Z,43.10
2023-03-20T04:57:29.098Z,43.30
2023-03-20T04:59:57.192Z,45.30
2023-03-20T05:02:25.956Z,44.30
2023-03-20T05:04:54.572Z,45.10
2023-03-20T05:07:22.921Z,40.70
2023-03-20T05:10:04.816Z,40.60
2023-03-20T05:12:38.419Z,37.50
2023-03-20T05:15:25.636Z,37.00
2023-03-20T05:18:12.448Z,36.70
2023-03-20T05:23:51.809Z,41.50
2023-03-20T05:26:51.212Z,38.60
2023-03-20T05:29:51.947Z,39.00
2023-03-20T05:32:42.206Z,39.70
2023-03-20T05:35:33.796Z,39.50
2023-03-20T05:38:16.481Z,39.10
2023-03-20T05:40:59.421Z,39.40
2023-03-20T05:43:44.164Z,41.30
2023-03-20T05:46:31.351Z,36.20
2023-03-20T05:49:27.419Z,43.10
2023-03-20T05:52:22.918Z,37.50
2023-03-20T05:55:11.478Z,36.20
2023-03-20T05:58:00.152Z,41.90
2023-03-20T06:00:41.522Z,40.70
2023-03-20T06:03:38.984Z,36.50
2023-03-20T06:06:12.478Z,39.80
2023-03-20T06:08:43.304Z,42.20
2023-03-20T06:11:12.008Z,36.60
2023-03-20T06:13:40.481Z,40.00
2023-03-20T06:16:09.726Z,46.10
2023-03-20T06:18:39.461Z,41.60
2023-03-20T06:21:09.628Z,42.10
2023-03-20T06:23:37.996Z,41.00
2023-03-20T06:26:07.154Z,39.40
2023-03-20T06:28:46.427Z,43.60
2023-03-20T06:31:15.194Z,42.10
2023-03-20T06:33:44.612Z,37.90
2023-03-20T06:36:14.128Z,40.50
2023-03-20T06:38:42.399Z,42.30
2023-03-20T06:41:27.734Z,41.20
2023-03-20T06:44:04.047Z,39.30
2023-03-20T06:46:50.150Z,40.80
2023-03-20T06:49:19.018Z,41.70
2023-03-20T06:51:48.424Z,43.00
2023-03-20T06:54:23.406Z,48.00
2023-03-20T06:56:53.171Z,42.00
2023-03-20T06:59:22.820Z,43.90
2023-03-20T07:01:56.858Z,43.80
2023-03-20T07:04:25.884Z,43.70
2023-03-20T07:06:58.563Z,43.70
2023-03-20T07:09:27.273Z,45.80
2023-03-20T07:11:55.536Z,47.40
2023-03-20T07:14:24.321Z,60.90
2023-03-20T07:16:57.091Z,47.10
2023-03-20T07:19:25.694Z,45.30
2023-03-20T07:22:02.100Z,47.70
2023-03-20T07:24:35.023Z,43.70
2023-03-20T07:27:03.328Z,43.80
2023-03-20T07:29:31.903Z,45.70
2023-03-20T07:32:01.183Z,45.40
2023-03-20T07:34:37.057Z,41.60
2023-03-20T07:37:05.947Z,46.90
2023-03-20T07:39:35.553Z,42.40
2023-03-20T07:42:23.908Z,41.00
2023-03-20T07:44:59.170Z,41.90
2023-03-20T07:47:28.362Z,44.00
2023-03-20T07:49:56.714Z,43.50
2023-03-20T07:52:24.993Z,48.20
2023-03-20T07:54:54.397Z,43.80
2023-03-20T07:57:22.980Z,41.70
2023-03-20T07:59:51.459Z,42.30
2023-03-20T08:02:19.633Z,40.00
2023-03-20T08:04:48.320Z,42.80
2023-03-20T08:07:16.912Z,40.10
2023-03-20T08:09:45.800Z,42.10
2023-03-20T08:12:14.548Z,42.80
2023-03-20T08:14:44.400Z,40.50
2023-03-20T08:17:15.493Z,40.90
2023-03-20T08:19:46.035Z,39.60
2023-03-20T08:22:14.148Z,38.00
2023-03-20T08:24:42.319Z,38.40
2023-03-20T08:27:10.813Z,39.20
2023-03-20T08:29:39.287Z,40.10
2023-03-20T08:32:07.769Z,35.20
2023-03-20T08:34:36.052Z,34.40
2023-03-20T08:37:05.352Z,33.60
2023-03-20T08:39:34.543Z,32.60
2023-03-20T08:42:03.363Z,34.20
2023-03-20T08:44:32.225Z,33.30
2023-03-20T08:47:01.012Z,34.60
2023-03-20T08:49:29.406Z,33.40
2023-03-20T08:51:58.184Z,35.30
2023-03-20T08:54:26.965Z,32.90
2023-03-20T08:56:55.885Z,33.20
2023-03-20T08:59:24.232Z,33.80
2023-03-20T09:01:52.431Z,34.30
2023-03-20T09:04:21.309Z,30.90
2023-03-20T09:06:50.394Z,30.30
2023-03-20T09:09:20.419Z,31.00
2023-03-20T09:11:48.896Z,30.20
2023-03-20T09:14:17.682Z,33.80
2023-03-20T09:16:46.374Z,31.90
2023-03-20T09:19:15.567Z,33.40
2023-03-20T09:21:44.166Z,31.40
2023-03-20T09:24:12.689Z,31.00
2023-03-20T09:26:41.222Z,32.90
2023-03-20T09:29:09.603Z,32.90
2023-03-20T09:31:38.022Z,34.00
2023-03-20T09:34:06.565Z,32.50
2023-03-20T09:36:34.938Z,33.00
2023-03-20T09:39:04.456Z,32.20
2023-03-20T09:41:52.975Z,34.60
2023-03-20T09:44:30.657Z,29.70
2023-03-20T09:47:40.239Z,30.90
2023-03-20T09:50:41.712Z,26.30
2023-03-20T09:53:31.272Z,29.00
2023-03-20T09:56:00.427Z,32.70
2023-03-20T09:58:33.976Z,30.30
2023-03-20T10:01:05.805Z,22.80
2023-03-20T10:03:43.223Z,21.00
2023-03-20T10:06:17.085Z,20.00
2023-03-20T10:08:46.536Z,23.70
2023-03-20T10:11:45.939Z,14.90
2023-03-20T10:14:23.429Z,28.80
2023-03-20T10:17:17.646Z,24.60
2023-03-20T10:19:57.875Z,20.20
2023-03-20T10:22:33.110Z,18.20
2023-03-20T10:25:32.280Z,15.70
2023-03-20T10:28:04.454Z,16.60
2023-03-20T10:30:48.135Z,16.40
2023-03-20T10:33:31.857Z,16.80
2023-03-20T10:36:22.178Z,17.70
2023-03-20T10:38:57.456Z,18.10
2023-03-20T10:41:32.385Z,19.60
2023-03-20T10:44:02.058Z,18.30
2023-03-20T10:46:43.454Z,22.90
2023-03-20T10:49:17.686Z,23.00
2023-03-20T10:51:52.726Z,23.20
2023-03-20T10:54:42.141Z,22.30
2023-03-20T10:57:35.199Z,28.80
2023-03-20T11:00:05.486Z,16.60
2023-03-20T11:02:34.012Z,14.60
2023-03-20T11:05:23.583Z,14.20
2023-03-20T11:08:01.589Z,25.20
2023-03-20T11:10:32.710Z,14.70
2023-03-20T11:13:23.230Z,12.80
2023-03-20T11:15:53.905Z,14.50
2023-03-20T11:18:25.825Z,23.40
2023-03-20T11:20:58.209Z,19.30
2023-03-20T11:23:30.779Z,18.10
2023-03-20T11:26:04.062Z,19.50
2023-03-20T11:28:32.249Z,16.40
2023-03-20T11:31:24.944Z,16.30
2023-03-20T11:34:10.072Z,17.60
2023-03-20T11:36:41.389Z,13.00
2023-03-20T11:39:14.821Z,16.10
2023-03-20T11:41:45.752Z,14.40
2023-03-20T11:44:36.459Z,10.90
2023-03-20T11:47:20.403Z,12.40
2023-03-20T11:49:55.167Z,11.40
2023-03-20T11:52:29.713Z,12.70
2023-03-20T11:55:00.385Z,12.80
2023-03-20T11:57:31.429Z,11.70
2023-03-20T12:00:07.622Z,12.30
2023-03-20T12:02:37.441Z,12.30
2023-03-20T12:05:36.603Z,10.60
2023-03-20T12:08:13.893Z,12.00
2023-03-20T12:10:49.436Z,12.80
2023-03-20T12:13:42.811Z,13.80
2023-03-20T12:16:17.122Z,12.50
2023-03-20T12:19:18.265Z,13.20
2023-03-20T12:21:52.567Z,11.70
2023-03-20T12:24:28.135Z,12.60
2023-03-20T12:27:10.136Z,13.80
2023-03-20T12:30:00.959Z,12.30
2023-03-20T12:32:42.914Z,13.40
2023-03-20T12:35:16.789Z,13.40
2023-03-20T12:37:45.064Z,13.20
2023-03-20T12:40:17.495Z,13.90
2023-03-20T12:43:03.670Z,12.80
2023-03-20T12:45:47.429Z,12.20
2023-03-20T12:48:37.423Z,12.10
2023-03-20T12:51:24.745Z,13.90
2023-03-20T12:54:11.755Z,13.30
2023-03-20T12:56:52.224Z,12.90
2023-03-20T12:59:38.929Z,13.30
2023-03-20T13:02:57.603Z,14.40
2023-03-20T13:06:04.581Z,12.80
2023-03-20T13:08:51.795Z,12.90
2023-03-20T13:11:41.476Z,14.70
2023-03-20T13:14:14.659Z,14.00
2023-03-20T13:16:52.039Z,12.10
2023-03-20T13:19:54.530Z,14.30
2023-03-20T13:22:42.364Z,13.10
2023-03-20T13:25:13.304Z,12.70
2023-03-20T13:28:03.084Z,14.10
2023-03-20T13:30:31.164Z,14.00
2023-03-20T13:33:36.498Z,13.20
2023-03-20T13:36:16.984Z,11.60
2023-03-20T13:38:53.742Z,12.40
2023-03-20T13:41:24.490Z,10.80
2023-03-20T13:44:03.683Z,12.80
2023-03-20T13:46:38.274Z,11.30
2023-03-20T13:49:34.058Z,12.90
2023-03-20T13:52:15.704Z,11.30
2023-03-20T13:55:21.581Z,11.60
2023-03-20T13:58:19.581Z,10.60
2023-03-20T14:00:54.146Z,11.40
2023-03-20T14:03:28.669Z,10.50
2023-03-20T14:05:57.433Z,10.70
2023-03-20T14:08:30.506Z,11.40
2023-03-20T14:11:11.276Z,11.00
2023-03-20T14:13:43.061Z,11.10
2023-03-20T14:16:15.892Z,12.40
2023-03-20T14:18:47.606Z,10.40
2023-03-20T14:21:21.294Z,11.00
2023-03-20T14:24:02.760Z,10.50
2023-03-20T14:26:41.986Z,11.10
2023-03-20T14:29:10.168Z,12.70
2023-03-20T14:31:42.408Z,10.70
2023-03-20T14:34:13.710Z,10.10
2023-03-20T14:37:03.402Z,11.20
2023-03-20T14:39:34.503Z,12.60
2023-03-20T14:42:11.589Z,12.80
2023-03-20T14:44:52.358Z,12.00
2023-03-20T14:47:24.962Z,12.10
2023-03-20T14:50:11.338Z,13.70
2023-03-20T14:52:45.571Z,13.20
2023-03-20T14:55:19.776Z,12.90
2023-03-20T14:57:56.690Z,13.40
2023-03-20T15:00:35.993Z,13.20
2023-03-20T15:03:04.267Z,14.50
2023-03-20T15:05:36.287Z,13.80
2023-03-20T15:08:28.769Z,10.40
2023-03-20T15:11:04.242Z,17.90
2023-03-20T15:13:36.029Z,12.80
2023-03-20T15:16:08.444Z,18.10
2023-03-20T15:21:41.453Z,14.60
2023-03-20T15:24:30.944Z,11.60
2023-03-20T15:27:01.783Z,12.20
2023-03-20T15:29:33.167Z,11.50
2023-03-20T15:32:13.950Z,12.20
2023-03-20T15:34:44.728Z,12.50
2023-03-20T15:37:18.357Z,15.40
2023-03-20T15:39:54.046Z,94.90
2023-03-20T15:42:25.755Z,189.30
2023-03-20T15:44:56.874Z,135.90
2023-03-20T15:47:26.368Z,20.40
2023-03-20T15:49:55.893Z,22.90
2023-03-20T15:52:53.214Z,14.30
2023-03-20T15:55:24.937Z,13.30
2023-03-20T15:57:57.283Z,15.00
2023-03-20T16:00:35.564Z,14.00
2023-03-20T16:03:08.028Z,11.40
2023-03-20T16:05:36.646Z,11.10
2023-03-20T16:08:21.708Z,12.10
2023-03-20T16:10:59.574Z,11.40
2023-03-20T16:13:33.155Z,11.20
2023-03-20T16:16:03.557Z,13.30
2023-03-20T16:18:36.797Z,14.00
2023-03-20T16:21:27.850Z,12.70
2023-03-20T16:23:59.094Z,12.00
2023-03-20T16:26:28.101Z,14.80
2023-03-20T16:29:00.405Z,17.80
2023-03-20T16:31:36.249Z,20.20
2023-03-20T16:34:08.716Z,21.30
2023-03-20T16:36:38.885Z,21.20
2023-03-20T16:39:18.143Z,21.50
2023-03-20T16:41:50.517Z,19.50
2023-03-20T16:44:25.041Z,20.90
2023-03-20T16:47:21.475Z,21.50
2023-03-20T16:50:02.571Z,23.70
2023-03-20T16:52:37.406Z,23.30
2023-03-20T16:55:12.198Z,24.70
2023-03-20T16:57:40.691Z,24.00
2023-03-20T17:00:23.810Z,25.90
2023-03-20T17:02:59.955Z,39.50
2023-03-20T17:05:44.238Z,39.00
2023-03-20T17:08:15.086Z,33.80
2023-03-20T17:10:46.375Z,38.50
2023-03-20T17:13:15.408Z,40.60
2023-03-20T17:15:44.841Z,39.10
2023-03-20T17:18:14.629Z,45.10
2023-03-20T17:20:43.004Z,41.80
2023-03-20T17:23:16.643Z,45.70
2023-03-20T17:25:45.000Z,46.50
2023-03-20T17:28:20.851Z,51.20
2023-03-20T17:30:50.683Z,58.00
2023-03-20T17:33:21.201Z,60.10
2023-03-20T17:35:49.799Z,63.80
2023-03-20T17:38:22.243Z,61.10
2023-03-20T17:40:51.981Z,68.60
2023-03-20T17:43:20.335Z,73.10
2023-03-20T17:45:49.036Z,74.00
2023-03-20T17:48:20.909Z,69.00
2023-03-20T17:50:53.253Z,67.10
2023-03-20T17:53:29.013Z,65.50
2023-03-20T17:55:57.997Z,82.50
2023-03-20T17:58:26.280Z,75.40
2023-03-20T18:00:55.631Z,74.90
2023-03-20T18:03:23.762Z,75.10
2023-03-20T18:05:52.048Z,75.90
2023-03-20T18:08:22.299Z,78.50
2023-03-20T18:10:52.534Z,79.90
2023-03-20T18:13:22.905Z,77.80
2023-03-20T18:15:53.811Z,75.10
2023-03-20T18:18:24.120Z,77.40
2023-03-20T18:20:54.933Z,77.30
2023-03-20T18:23:23.486Z,76.00
2023-03-20T18:25:52.059Z,76.40
2023-03-20T18:28:24.644Z,75.60
2023-03-20T18:30:53.046Z,75.50
2023-03-20T18:33:26.830Z,77.20
2023-03-20T18:35:55.059Z,76.80
2023-03-20T18:38:25.033Z,80.10
2023-03-20T18:40:53.300Z,78.10
2023-03-20T18:43:21.684Z,80.10
2023-03-20T18:45:49.985Z,81.70
2023-03-20T18:48:18.343Z,80.30
2023-03-20T18:50:51.104Z,86.10
2023-03-20T18:53:19.817Z,89.30
2023-03-20T18:55:47.978Z,89.80
2023-03-20T18:58:27.622Z,85.60
2023-03-20T19:00:58.198Z,85.40
2023-03-20T19:03:28.764Z,87.80
2023-03-20T19:05:58.598Z,102.20
2023-03-20T19:08:26.871Z,93.50
2023-03-20T19:10:55.206Z,88.80
2023-03-20T19:13:24.960Z,87.90
2023-03-20T19:15:54.828Z,92.10
2023-03-20T19:18:26.169Z,95.60
2023-03-20T19:20:56.647Z,88.00
2023-03-20T19:23:29.041Z,90.70
2023-03-20T19:25:57.299Z,99.60
2023-03-20T19:28:38.815Z,101.50
2023-03-20T19:31:10.023Z,97.00
2023-03-20T19:33:39.313Z,99.00
2023-03-20T19:36:24.382Z,105.70
2023-03-20T19:38:53.364Z,107.00
2023-03-20T19:41:22.039Z,109.90
2023-03-20T19:43:53.501Z,116.90
2023-03-20T19:46:39.822Z,116.90
2023-03-20T19:49:18.601Z,111.70
2023-03-20T19:51:48.892Z,116.60
2023-03-20T19:54:17.811Z,121.80
2023-03-20T19:56:46.260Z,116.20
2023-03-20T19:59:16.700Z,116.60
2023-03-20T20:01:46.275Z,110.70
2023-03-20T20:04:15.487Z,113.60
2023-03-20T20:06:47.229Z,121.80
2023-03-20T20:09:16.355Z,134.70
2023-03-20T20:11:44.525Z,130.70
2023-03-20T20:14:14.963Z,143.10
2023-03-20T20:16:45.683Z,143.00
2023-03-20T20:19:14.559Z,131.70
2023-03-20T20:29:49.227Z,102.00
2023-03-20T20:32:19.246Z,96.10
2023-03-20T20:40:29.397Z,76.50
2023-03-20T20:43:01.896Z,72.60
2023-03-20T20:45:32.110Z,66.70
2023-03-20T20:48:01.919Z,60.50
2023-03-20T20:50:32.760Z,100.80
2023-03-20T20:53:02.618Z,110.10
2023-03-20T20:55:31.203Z,82.70
2023-03-20T20:57:59.490Z,69.30
2023-03-20T21:00:45.323Z,57.70
2023-03-20T21:03:16.466Z,68.80
2023-03-20T21:05:44.821Z,64.50
2023-03-20T21:08:15.337Z,66.90
2023-03-20T21:10:45.217Z,99.20
2023-03-20T21:13:14.637Z,71.20
2023-03-20T21:15:45.756Z,88.10
2023-03-20T21:18:14.679Z,92.80
2023-03-20T21:20:43.074Z,104.60
2023-03-20T21:23:11.867Z,89.10
2023-03-20T21:25:42.164Z,74.10
2023-03-20T21:28:12.930Z,64.70
2023-03-20T21:30:54.659Z,56.20
2023-03-20T21:33:32.902Z,54.00
2023-03-20T21:36:01.401Z,52.60
2023-03-20T21:41:19.044Z,49.90
2023-03-20T21:43:47.833Z,51.10
2023-03-20T22:03:29.041Z,52.90
2023-03-20T22:09:51.764Z,52.20
2023-03-20T22:21:06.237Z,52.30
2023-03-20T22:26:56.687Z,44.70
2023-03-20T22:29:32.686Z,41.20
2023-03-20T22:32:18.650Z,39.60
2023-03-20T22:37:58.456Z,43.40
2023-03-20T22:43:38.402Z,37.80
2023-03-20T22:48:35.690Z,38.10
2023-03-20T22:51:04.894Z,38.70
2023-03-20T22:53:34.321Z,43.40
2023-03-20T22:56:02.563Z,39.20
2023-03-20T22:58:31.046Z,40.30
2023-03-20T23:00:59.367Z,35.30
2023-03-20T23:03:40.943Z,38.80
2023-03-20T23:06:25.488Z,35.50
2023-03-20T23:09:03.144Z,37.00
2023-03-20T23:11:33.909Z,35.20
2023-03-20T23:14:03.794Z,33.70
2023-03-20T23:16:34.276Z,35.60
2023-03-20T23:19:02.742Z,34.80
2023-03-20T23:21:30.999Z,35.80
2023-03-20T23:23:59.276Z,34.00
2023-03-20T23:26:27.964Z,36.20
2023-03-20T23:28:56.249Z,37.40
2023-03-20T23:31:26.273Z,35.00
2023-03-20T23:33:57.204Z,38.90
2023-03-20T23:36:42.448Z,35.30
2023-03-20T23:39:14.331Z,37.00
2023-03-20T23:44:30.843Z,36.70
2023-03-20T23:47:01.386Z,37.80
2023-03-20T23:49:31.405Z,39.80
2023-03-20T23:51:59.785Z,35.40
2023-03-20T23:54:27.858Z,38.30
2023-03-20T23:56:56.233Z,34.60
2023-03-20T23:59:24.611Z,34.60
